KMBY

Omar N Bradley Airport

Moberly, Missouri, USA
METAR KMBY 171635Z AUTO 33005KT 10SM SCT022 SCT045 SCT065 25/19 A3003 RMK AO2
Observed Flight Rules
Aug-17 @ 16:35 UTC (16 minutes ago) Visual Flight Rules
Wind Visibility Clouds
330° at 5 knots 10 miles
  • Scattered at 2,200' AGL
  • Scattered at 4,500' AGL
  • Scattered at 6,500' AGL
Temperatures Readings
Current 25°C / 77°F
Dewpoint 19°C / 66°F
Humidity 69%
Altimeter 30.03" Hg
Pressure 1017 hPa
Elevation 264
METAR KMBY 171635Z AUTO 33005KT 10SM SCT022 SCT045 SCT065 25/19 A3003 RMK AO2
Observed Flight Rules
Aug-17 @ 16:35 UTC
(16 minutes ago)
VFR
Wind Visibility
330° at 5 knots 10 miles
Clouds
  • Scattered at 2,200' AGL
  • Scattered at 4,500' AGL
  • Scattered at 6,500' AGL
Temperature Dewpoint
25°C / 77°F 19°C / 66°F
Humidity Altimeter Pressure
69% 30.03" Hg 1017 hPa